Time;durP1;ratioP1;P1;durP2;ratioP2;P2;SDS_P1;SDS_P2;PMS_P1;PMS_P2;Temp;Humidity;BMP_temperature;BMP_pressure;BME280_temperature;BME280_humidity;BME280_pressure;Samples;Min_cycle;Max_cycle;Signal;HPM_P1;HPM_P2
2022/06/22 00:01:40;;;;;;;2.90;1.00;;;11.30;99.90;;;;;;5086739;28;20395;-81
2022/06/22 00:04:13;;;;;;;2.30;1.10;;;11.50;99.90;;;;;;5087696;28;20408;-81
2022/06/22 00:06:45;;;;;;;2.75;0.70;;;11.80;99.90;;;;;;5082374;28;20364;-82
2022/06/22 00:09:38;;;;;;;2.70;0.80;;;12.00;99.90;;;;;;5089507;28;20875;-81
2022/06/22 00:12:07;;;;;;;2.80;0.80;;;12.10;99.90;;;;;;5082528;28;20866;-82
2022/06/22 00:14:48;;;;;;;1.25;0.63;;;12.20;99.90;;;;;;5089343;28;20370;-81
2022/06/22 00:17:36;;;;;;;1.42;0.80;;;12.30;99.90;;;;;;5089273;28;20369;-81
2022/06/22 00:20:09;;;;;;;2.15;0.80;;;12.40;99.90;;;;;;5089102;28;20459;-82
2022/06/22 00:23:11;;;;;;;1.77;0.70;;;12.50;99.90;;;;;;5087295;28;20485;-82
2022/06/22 00:25:39;;;;;;;3.08;0.82;;;12.60;99.90;;;;;;4988741;28;20384;-82
2022/06/22 00:28:26;;;;;;;3.42;0.80;;;12.70;98.70;;;;;;4990642;28;20488;-82
2022/06/22 00:31:37;;;;;;;1.67;0.80;;;12.80;99.90;;;;;;5004973;28;20383;-82
2022/06/22 00:34:12;;;;;;;1.87;0.87;;;12.90;98.30;;;;;;4942640;29;20761;-82
2022/06/22 00:36:49;;;;;;;2.25;0.90;;;13.00;97.60;;;;;;4948636;29;20415;-81
2022/06/22 00:39:22;;;;;;;1.52;0.85;;;13.00;97.70;;;;;;4948287;29;20384;-82
2022/06/22 00:42:14;;;;;;;2.27;1.37;;;13.10;97.00;;;;;;4948139;29;20480;-82
2022/06/22 00:45:05;;;;;;;2.13;0.90;;;13.20;97.50;;;;;;4947784;29;20471;-82
2022/06/22 00:47:46;;;;;;;1.92;0.90;;;13.20;96.70;;;;;;4948265;29;20396;-83
2022/06/22 00:50:18;;;;;;;1.80;0.88;;;13.20;97.10;;;;;;4935783;29;20876;-83
2022/06/22 00:52:50;;;;;;;2.88;1.00;;;13.30;97.40;;;;;;4948347;29;20388;-82
2022/06/22 00:55:33;;;;;;;2.25;1.30;;;13.40;96.50;;;;;;4948264;29;20396;-82
2022/06/22 00:58:40;;;;;;;3.20;1.40;;;13.50;96.80;;;;;;4948260;29;20765;-82
2022/06/22 01:01:46;;;;;;;4.22;1.60;;;13.60;95.30;;;;;;4872151;29;20409;-83
2022/06/22 01:04:23;;;;;;;2.10;1.30;;;13.60;96.50;;;;;;4862151;29;20562;-82
2022/06/22 01:06:55;;;;;;;2.90;1.50;;;13.60;97.10;;;;;;4871687;29;20391;-82
2022/06/22 01:10:06;;;;;;;2.00;1.30;;;13.80;97.10;;;;;;4880295;29;20755;-83
2022/06/22 01:12:49;;;;;;;1.10;0.82;;;13.80;97.50;;;;;;4933710;29;21018;-83
2022/06/22 01:15:40;;;;;;;1.88;0.85;;;13.90;96.40;;;;;;4946917;29;20380;-83
2022/06/22 01:18:21;;;;;;;1.57;0.70;;;14.10;97.40;;;;;;4947702;29;20420;-83
2022/06/22 01:20:57;;;;;;;1.50;0.77;;;14.20;96.20;;;;;;4947488;28;20776;-83
2022/06/22 01:24:00;;;;;;;1.35;0.70;;;14.20;95.80;;;;;;4946953;29;20416;-83
2022/06/22 01:27:03;;;;;;;2.25;0.70;;;14.30;96.00;;;;;;4947355;29;20407;-83
2022/06/22 01:29:30;;;;;;;2.45;0.75;;;14.30;96.10;;;;;;4947220;29;20388;-83
2022/06/22 01:32:12;;;;;;;1.50;0.70;;;14.30;95.90;;;;;;4946741;29;20380;-82
2022/06/22 01:34:47;;;;;;;1.90;0.65;;;14.50;93.90;;;;;;4944949;29;20430;-83
2022/06/22 01:37:37;;;;;;;1.95;0.60;;;14.70;93.30;;;;;;4961377;28;20383;-83
2022/06/22 01:40:15;;;;;;;1.42;0.75;;;14.80;92.70;;;;;;5061718;28;20459;-83
2022/06/22 01:42:50;;;;;;;1.33;0.60;;;15.00;91.50;;;;;;5083638;28;20410;-83
2022/06/22 01:45:20;;;;;;;1.90;0.70;;;15.10;90.30;;;;;;5087065;28;20368;-83
2022/06/22 01:48:18;;;;;;;1.73;0.50;;;15.20;90.20;;;;;;5080985;28;20391;-83
2022/06/22 01:50:55;;;;;;;1.35;0.55;;;15.30;86.70;;;;;;5005117;28;20887;-81
2022/06/22 01:53:39;;;;;;;0.65;0.50;;;15.30;85.70;;;;;;4987352;28;20490;-82
2022/06/22 01:56:25;;;;;;;1.90;0.40;;;15.60;85.30;;;;;;5005231;28;20376;-82
2022/06/22 01:59:15;;;;;;;1.48;0.50;;;15.70;85.30;;;;;;4992940;28;21391;-83
2022/06/22 02:01:49;;;;;;;3.40;0.60;;;15.70;82.60;;;;;;5004705;28;20470;-83
2022/06/22 02:04:22;;;;;;;1.58;0.60;;;15.80;82.70;;;;;;5004929;28;20413;-83
2022/06/22 02:10:10;;;;;;;1.90;0.60;;;16.10;79.70;;;;;;4995885;28;20388;-82
2022/06/22 02:12:44;;;;;;;3.10;0.70;;;16.50;77.80;;;;;;5005070;28;20917;-82
2022/06/22 02:15:54;;;;;;;4.38;0.88;;;16.50;74.50;;;;;;4972272;28;20848;-83
2022/06/22 02:18:56;;;;;;;1.08;0.52;;;16.50;75.00;;;;;;4940737;28;20402;-82
2022/06/22 02:21:23;;;;;;;1.10;0.50;;;16.50;73.50;;;;;;4941160;29;20488;-84
2022/06/22 02:24:02;;;;;;;1.90;0.70;;;16.40;72.60;;;;;;4945525;29;20476;-83
2022/06/22 02:27:01;;;;;;;4.40;0.80;;;16.50;73.70;;;;;;4946570;28;20508;-80
2022/06/22 02:29:43;;;;;;;1.80;0.50;;;16.70;70.70;;;;;;5024671;28;20403;-82
2022/06/22 02:32:20;;;;;;;1.40;0.47;;;16.70;69.90;;;;;;5022722;28;20796;-83
2022/06/22 02:34:50;;;;;;;3.65;0.82;;;16.60;70.10;;;;;;5011782;28;20444;-83
2022/06/22 02:37:19;;;;;;;3.97;0.70;;;16.50;70.30;;;;;;5019816;28;20432;-82
2022/06/22 02:39:54;;;;;;;2.00;0.50;;;16.50;70.90;;;;;;5023979;28;20377;-82
2022/06/22 02:45:11;;;;;;;1.40;0.50;;;16.40;72.70;;;;;;5015118;28;20730;-82
2022/06/22 02:47:52;;;;;;;2.70;0.50;;;16.60;70.40;;;;;;5007560;28;20399;-82
2022/06/22 02:50:22;;;;;;;1.77;0.60;;;16.70;69.70;;;;;;5024254;28;20407;-82
2022/06/22 02:52:52;;;;;;;1.20;0.40;;;16.90;69.30;;;;;;5053682;28;20374;-82
2022/06/22 02:55:24;;;;;;;1.00;0.60;;;16.90;67.90;;;;;;5070358;28;20383;-82
2022/06/22 02:57:57;;;;;;;3.20;0.60;;;16.80;69.30;;;;;;5086098;28;20426;-82
2022/06/22 03:00:32;;;;;;;0.90;0.50;;;16.70;68.80;;;;;;5059687;28;20853;-82
2022/06/22 03:03:10;;;;;;;1.02;0.60;;;16.80;67.90;;;;;;5086103;28;20742;-83
2022/06/22 03:05:38;;;;;;;3.70;0.60;;;16.90;68.50;;;;;;5086406;28;20379;-83
2022/06/22 03:08:06;;;;;;;4.55;0.70;;;17.10;68.90;;;;;;5086512;28;20372;-84
2022/06/22 03:10:48;;;;;;;4.85;0.82;;;17.00;67.70;;;;;;5086234;28;20380;-82
2022/06/22 03:13:18;;;;;;;10.18;1.30;;;17.10;69.10;;;;;;5085810;28;20379;-82
2022/06/22 03:15:46;;;;;;;5.07;0.77;;;17.20;68.40;;;;;;5067961;28;20827;-82
2022/06/22 03:18:28;;;;;;;5.37;0.77;;;17.30;67.20;;;;;;5086266;28;20460;-82
2022/06/22 03:21:02;;;;;;;1.30;0.30;;;17.50;66.60;;;;;;5086084;28;20770;-81
2022/06/22 03:23:55;;;;;;;2.55;0.45;;;17.60;64.90;;;;;;5086030;28;20396;-82
2022/06/22 03:26:28;;;;;;;2.20;0.60;;;17.70;64.50;;;;;;5003366;28;20382;-82
2022/06/22 03:29:31;;;;;;;1.27;0.40;;;17.90;64.20;;;;;;4987423;28;20441;-82
2022/06/22 03:32:06;;;;;;;1.10;0.40;;;17.90;62.10;;;;;;4997982;28;20397;-82
2022/06/22 03:34:48;;;;;;;3.67;0.88;;;17.80;62.30;;;;;;5007778;28;20392;-81
2022/06/22 03:37:36;;;;;;;4.43;0.77;;;17.60;65.20;;;;;;5007849;28;20375;-82
2022/06/22 03:40:24;;;;;;;2.75;0.57;;;17.60;65.00;;;;;;4990839;28;20390;-83
2022/06/22 03:43:03;;;;;;;1.23;0.60;;;17.60;63.20;;;;;;4989795;28;20885;-82
2022/06/22 03:45:35;;;;;;;3.40;0.50;;;17.60;63.70;;;;;;4986732;28;20495;-82
2022/06/22 03:48:45;;;;;;;0.70;0.60;;;17.40;63.70;;;;;;4987738;28;20569;-82
2022/06/22 03:51:24;;;;;;;1.37;0.60;;;17.30;63.40;;;;;;4945223;28;20492;-82
2022/06/22 03:54:01;;;;;;;0.50;0.50;;;17.10;64.10;;;;;;4968585;28;20469;-82
2022/06/22 03:56:33;;;;;;;1.33;0.70;;;17.00;65.80;;;;;;4967990;28;20382;-82
2022/06/22 03:59:04;;;;;;;3.78;0.80;;;17.00;63.50;;;;;;4960902;28;20438;-82
2022/06/22 04:01:31;;;;;;;1.40;0.50;;;17.20;65.10;;;;;;4945246;28;20469;-82
2022/06/22 04:03:59;;;;;;;3.00;0.50;;;17.30;63.90;;;;;;5008385;28;20422;-82
2022/06/22 04:06:36;;;;;;;1.58;0.60;;;17.40;65.00;;;;;;5026868;28;20393;-82
2022/06/22 04:09:10;;;;;;;1.15;0.45;;;17.50;63.30;;;;;;5023958;28;20402;-82
2022/06/22 04:11:50;;;;;;;0.60;0.40;;;17.50;62.80;;;;;;5046174;28;20372;-82
2022/06/22 04:14:43;;;;;;;2.20;0.50;;;17.50;62.90;;;;;;5029620;28;20383;-82
2022/06/22 04:17:34;;;;;;;0.95;0.40;;;17.50;63.20;;;;;;4977807;28;20832;-82
2022/06/22 04:20:50;;;;;;;1.17;0.40;;;17.40;62.90;;;;;;4960506;28;20759;-82
2022/06/22 04:23:20;;;;;;;3.03;0.60;;;17.40;62.30;;;;;;4890884;29;20429;-82
2022/06/22 04:25:48;;;;;;;4.18;0.80;;;17.40;63.20;;;;;;4892970;29;20464;-81
2022/06/22 04:28:17;;;;;;;4.57;0.82;;;17.40;64.30;;;;;;4906012;29;20430;-83
2022/06/22 04:30:52;;;;;;;3.05;0.55;;;17.50;64.50;;;;;;4909657;29;20444;-83
2022/06/22 04:33:25;;;;;;;3.90;0.53;;;17.60;63.10;;;;;;4905732;29;20407;-85
2022/06/22 04:36:02;;;;;;;1.80;0.57;;;17.70;62.40;;;;;;4910092;29;20391;-84
2022/06/22 04:38:52;;;;;;;4.28;0.60;;;17.50;63.00;;;;;;4910004;29;20396;-83
2022/06/22 04:41:23;;;;;;;5.60;1.05;;;17.60;62.80;;;;;;4907470;29;20476;-84
2022/06/22 04:43:50;;;;;;;3.95;0.80;;;17.50;63.80;;;;;;4909989;29;20547;-83
2022/06/22 04:46:27;;;;;;;5.22;0.70;;;17.60;63.80;;;;;;4909879;29;20881;-84
2022/06/22 04:48:57;;;;;;;5.00;0.90;;;17.60;63.00;;;;;;4909982;29;20406;-82
2022/06/22 04:51:38;;;;;;;7.68;1.20;;;17.80;63.70;;;;;;4909834;29;20792;-83
2022/06/22 04:54:34;;;;;;;14.48;10.82;;;18.00;64.90;;;;;;4925908;29;20392;-83
2022/06/22 04:57:15;;;;;;;7.63;0.95;;;18.50;63.60;;;;;;4954191;28;20565;-83
2022/06/22 04:59:43;;;;;;;2.67;0.60;;;19.00;61.80;;;;;;5012730;28;20383;-83
2022/06/22 05:02:14;;;;;;;5.72;0.80;;;19.10;60.50;;;;;;5088307;28;20396;-83
2022/06/22 05:04:45;;;;;;;6.35;1.10;;;18.70;61.30;;;;;;5088251;28;20396;-84
2022/06/22 05:07:34;;;;;;;7.18;1.08;;;18.20;62.50;;;;;;5088245;28;20381;-82
2022/06/22 05:10:11;;;;;;;4.32;0.70;;;17.90;64.10;;;;;;5077508;28;20440;-83
2022/06/22 05:12:54;;;;;;;4.78;0.70;;;17.70;63.70;;;;;;5070383;28;20384;-83
2022/06/22 05:15:29;;;;;;;3.40;0.60;;;17.60;63.00;;;;;;5085748;28;20373;-82
2022/06/22 05:17:58;;;;;;;5.20;0.80;;;17.40;63.70;;;;;;5069959;28;20395;-82
2022/06/22 05:20:42;;;;;;;6.68;1.00;;;17.30;63.70;;;;;;5079796;28;20396;-83
2022/06/22 05:23:10;;;;;;;2.40;0.60;;;17.20;65.30;;;;;;5069813;28;20464;-83
2022/06/22 05:25:38;;;;;;;4.15;0.70;;;17.20;63.90;;;;;;5078303;28;20392;-83
2022/06/22 05:28:44;;;;;;;12.27;0.90;;;17.10;64.80;;;;;;5073969;28;20420;-83
2022/06/22 05:31:17;;;;;;;4.40;0.90;;;17.00;65.10;;;;;;5062281;28;20384;-83
2022/06/22 05:33:53;;;;;;;8.35;1.30;;;17.00;65.10;;;;;;5068549;28;20479;-83
2022/06/22 05:36:23;;;;;;;7.35;0.77;;;16.90;65.70;;;;;;5059686;28;20380;-82
2022/06/22 05:38:54;;;;;;;1.42;0.50;;;16.80;65.00;;;;;;5053245;28;20891;-83
2022/06/22 05:41:27;;;;;;;4.40;0.70;;;16.60;65.80;;;;;;5070659;28;20387;-82
2022/06/22 05:43:58;;;;;;;4.97;0.70;;;16.50;66.70;;;;;;5087408;28;20399;-83
2022/06/22 05:46:26;;;;;;;10.55;1.10;;;16.40;66.90;;;;;;5077796;28;20460;-83
2022/06/22 05:48:58;;;;;;;6.55;0.88;;;16.40;67.00;;;;;;5058325;28;20390;-82
2022/06/22 05:51:56;;;;;;;7.60;0.80;;;16.30;67.00;;;;;;5077980;28;20388;-83
2022/06/22 05:54:53;;;;;;;5.22;0.80;;;16.20;67.50;;;;;;5052550;28;20778;-84
2022/06/22 05:57:52;;;;;;;1.90;0.77;;;16.20;67.60;;;;;;5058189;28;20389;-83
2022/06/22 06:00:34;;;;;;;3.63;0.63;;;16.20;67.50;;;;;;5055233;28;20386;-83
2022/06/22 06:03:27;;;;;;;2.13;0.80;;;16.10;67.60;;;;;;5079559;28;20488;-82
2022/06/22 06:06:15;;;;;;;5.88;0.70;;;16.00;68.50;;;;;;5073895;28;20385;-83
2022/06/22 06:08:47;;;;;;;10.13;4.55;;;16.10;68.20;;;;;;5063234;28;20427;-83
2022/06/22 06:11:18;;;;;;;4.25;0.90;;;16.00;69.10;;;;;;5076528;28;20384;-83
2022/06/22 06:13:52;;;;;;;2.60;0.70;;;16.00;70.20;;;;;;5085525;28;20372;-82
2022/06/22 06:16:26;;;;;;;6.30;3.40;;;16.30;70.70;;;;;;5067069;28;20889;-82
2022/06/22 06:18:59;;;;;;;3.63;2.63;;;16.20;71.50;;;;;;5059252;28;20383;-84
2022/06/22 06:21:32;;;;;;;0.90;0.80;;;16.20;72.30;;;;;;5055921;28;20444;-84
2022/06/22 06:24:02;;;;;;;2.17;1.08;;;16.20;73.60;;;;;;5054262;28;20491;-82
2022/06/22 06:29:56;;;;;;;2.45;1.40;;;16.00;74.70;;;;;;5073216;28;20808;-82
2022/06/22 06:32:39;;;;;;;3.38;1.90;;;15.90;75.40;;;;;;5076450;28;20391;-84
2022/06/22 06:35:39;;;;;;;2.67;2.00;;;15.70;76.60;;;;;;5049559;28;20387;-85
2022/06/22 06:38:16;;;;;;;4.70;2.40;;;15.50;77.10;;;;;;5002148;28;20394;-83
2022/06/22 06:40:51;;;;;;;4.88;2.70;;;15.40;79.30;;;;;;5000615;28;20994;-83
2022/06/22 06:43:50;;;;;;;4.10;3.30;;;15.20;80.00;;;;;;5001517;28;20424;-85
2022/06/22 06:46:23;;;;;;;5.53;2.72;;;15.10;80.10;;;;;;4995032;28;20454;-84
2022/06/22 06:48:58;;;;;;;4.55;2.78;;;15.10;80.80;;;;;;5007073;28;20389;-83
2022/06/22 06:51:29;;;;;;;5.05;3.10;;;14.90;80.90;;;;;;5010022;28;20391;-84
2022/06/22 06:54:03;;;;;;;4.60;3.10;;;14.70;82.30;;;;;;5002681;28;20395;-83
2022/06/22 06:56:47;;;;;;;6.57;2.30;;;14.40;84.60;;;;;;4991437;28;20543;-83
2022/06/22 06:59:19;;;;;;;3.28;1.70;;;14.20;87.40;;;;;;5008436;28;20958;-83
2022/06/22 07:01:49;;;;;;;6.13;2.60;;;14.20;89.60;;;;;;5000754;28;21489;-86
2022/06/22 07:04:29;;;;;;;6.85;3.22;;;14.30;90.30;;;;;;4994837;28;20414;-86
2022/06/22 07:07:07;;;;;;;4.35;3.20;;;14.20;91.00;;;;;;5010183;28;20386;-85
2022/06/22 07:09:38;;;;;;;6.10;3.05;;;14.00;91.30;;;;;;5011852;28;20414;-83
2022/06/22 07:12:28;;;;;;;4.18;2.70;;;13.80;91.80;;;;;;5022762;28;21172;-83
2022/06/22 07:14:59;;;;;;;4.83;2.53;;;13.50;92.70;;;;;;5031001;28;20404;-82
2022/06/22 07:17:26;;;;;;;5.57;2.80;;;13.20;93.90;;;;;;5076477;28;20948;-85
2022/06/22 07:19:59;;;;;;;7.13;2.73;;;13.00;95.00;;;;;;5068743;28;20398;-82
2022/06/22 07:22:32;;;;;;;5.50;2.72;;;12.70;96.40;;;;;;5069019;28;20407;-84
2022/06/22 07:25:21;;;;;;;6.50;2.70;;;12.50;97.50;;;;;;5076378;28;20415;-89
2022/06/22 07:28:01;;;;;;;4.22;2.75;;;12.30;98.60;;;;;;5076496;28;20383;-85
2022/06/22 07:30:42;;;;;;;6.85;3.30;;;11.90;99.70;;;;;;5078325;28;20486;-84
2022/06/22 07:33:31;;;;;;;6.10;2.58;;;12.10;99.90;;;;;;5063932;28;20386;-89
2022/06/22 07:36:10;;;;;;;6.18;3.50;;;12.00;99.90;;;;;;5058112;28;20392;-83
2022/06/22 07:38:50;;;;;;;24.10;5.10;;;11.90;99.90;;;;;;5074575;28;20382;-85
2022/06/22 07:41:20;;;;;;;15.98;4.20;;;11.80;99.90;;;;;;5075218;28;20388;-85
2022/06/22 07:43:54;;;;;;;14.50;4.00;;;11.70;99.90;;;;;;5085741;28;20430;-84
2022/06/22 07:46:24;;;;;;;11.38;3.75;;;11.70;99.90;;;;;;5049755;28;20392;-85
2022/06/22 07:48:59;;;;;;;26.60;4.60;;;11.60;99.90;;;;;;5068802;28;20384;-81
2022/06/22 07:51:30;;;;;;;12.93;3.80;;;11.50;99.90;;;;;;5066972;28;20397;-82
2022/06/22 07:54:22;;;;;;;10.95;3.70;;;11.40;99.90;;;;;;5088237;28;20376;-86
2022/06/22 07:57:26;;;;;;;8.97;3.80;;;11.30;99.90;;;;;;5089784;28;20479;-84
2022/06/22 08:00:19;;;;;;;8.67;4.07;;;11.20;99.90;;;;;;5081328;28;20380;-82
2022/06/22 08:02:51;;;;;;;6.63;4.47;;;11.10;99.90;;;;;;5056990;28;20407;-84
2022/06/22 08:05:44;;;;;;;6.88;4.55;;;11.00;99.90;;;;;;5076637;28;20381;-84
2022/06/22 08:08:28;;;;;;;7.28;4.63;;;10.90;99.90;;;;;;5080643;28;20430;-84
2022/06/22 08:11:17;;;;;;;16.00;10.57;;;10.80;99.90;;;;;;5078332;28;20430;-83
2022/06/22 08:13:54;;;;;;;13.90;10.93;;;10.90;99.90;;;;;;5066168;28;20385;-83
2022/06/22 08:16:31;;;;;;;22.38;16.70;;;10.90;99.90;;;;;;5056200;28;20382;-84
2022/06/22 08:19:01;;;;;;;22.27;17.77;;;10.80;99.90;;;;;;5063343;28;20394;-84
2022/06/22 08:21:29;;;;;;;18.58;13.55;;;10.70;99.90;;;;;;5050966;28;20734;-82
2022/06/22 08:23:58;;;;;;;20.90;13.95;;;10.60;99.90;;;;;;5071805;28;20411;-84
2022/06/22 08:26:30;;;;;;;11.18;8.57;;;10.60;99.90;;;;;;5078786;28;20379;-83
2022/06/22 08:28:58;;;;;;;11.00;8.93;;;10.60;99.90;;;;;;5063248;28;21110;-85
2022/06/22 08:31:49;;;;;;;12.32;9.30;;;10.60;99.90;;;;;;5066191;28;20461;-85
2022/06/22 08:34:30;;;;;;;11.85;8.90;;;10.60;99.90;;;;;;5043917;28;20435;-86
2022/06/22 08:37:07;;;;;;;12.73;8.80;;;10.50;99.90;;;;;;5069707;28;20852;-93
2022/06/22 08:39:49;;;;;;;10.98;8.90;;;10.50;99.90;;;;;;5076179;28;20384;-85
2022/06/22 08:42:22;;;;;;;13.07;8.70;;;10.40;99.90;;;;;;5089214;28;20480;-83
2022/06/22 08:45:07;;;;;;;12.20;7.57;;;10.30;99.90;;;;;;5073039;28;20574;-85
2022/06/22 08:48:05;;;;;;;14.23;8.68;;;10.50;99.90;;;;;;5081283;28;20376;-85
2022/06/22 08:50:35;;;;;;;14.68;8.68;;;10.30;99.90;;;;;;5077374;28;20397;-84
2022/06/22 08:53:39;;;;;;;19.30;8.90;;;10.30;99.90;;;;;;5067512;28;20912;-85
2022/06/22 08:56:24;;;;;;;19.23;8.70;;;10.30;99.90;;;;;;5076521;28;20410;-85
2022/06/22 08:59:23;;;;;;;17.20;8.25;;;10.20;99.90;;;;;;5076553;28;20392;-90
2022/06/22 09:02:08;;;;;;;21.20;8.57;;;10.20;99.90;;;;;;5079788;28;20369;-85
2022/06/22 09:05:05;;;;;;;18.58;8.00;;;10.20;99.90;;;;;;5057975;28;20401;-87
2022/06/22 09:07:59;;;;;;;18.42;7.35;;;10.20;99.90;;;;;;5074732;28;20383;-89
2022/06/22 09:10:58;;;;;;;18.10;6.50;;;10.10;99.90;;;;;;5078215;28;20380;-87
2022/06/22 09:13:52;;;;;;;17.20;6.77;;;10.20;99.90;;;;;;5071465;28;20387;-85
2022/06/22 09:17:11;;;;;;;17.50;6.95;;;10.20;99.90;;;;;;5068988;28;20401;-89
2022/06/22 09:20:10;;;;;;;14.43;6.45;;;10.10;99.90;;;;;;4964928;28;20469;-83
2022/06/22 09:22:57;;;;;;;14.30;6.10;;;10.00;99.90;;;;;;4957248;28;20469;-86
2022/06/22 09:25:50;;;;;;;22.35;5.90;;;9.90;99.90;;;;;;4961949;28;20403;-85
2022/06/22 09:28:28;;;;;;;19.52;6.13;;;9.90;99.90;;;;;;4951467;28;20471;-86
2022/06/22 09:31:21;;;;;;;14.93;5.85;;;9.80;99.90;;;;;;4967421;28;20395;-87
2022/06/22 09:34:18;;;;;;;17.40;5.30;;;9.70;99.90;;;;;;4966539;28;20576;-85
2022/06/22 09:37:13;;;;;;;17.92;4.80;;;9.70;99.90;;;;;;4967019;28;20948;-84
2022/06/22 09:40:03;;;;;;;12.07;3.80;;;9.70;99.90;;;;;;4964661;28;20422;-85
2022/06/22 09:42:45;;;;;;;13.18;3.95;;;9.60;99.90;;;;;;4966996;28;20414;-86
2022/06/22 09:45:18;;;;;;;12.32;4.03;;;9.60;99.90;;;;;;4955583;28;20386;-86
2022/06/22 09:48:38;;;;;;;12.27;4.10;;;9.50;99.90;;;;;;4948505;28;20516;-85
2022/06/22 09:51:23;;;;;;;13.18;6.15;;;9.40;99.90;;;;;;4946902;29;20388;-86
2022/06/22 09:56:19;;;;;;;18.37;6.73;;;9.40;99.90;;;;;;4988607;28;20379;-85
2022/06/22 09:57:37;;;;;;;15.25;6.40;;;9.40;99.90;;;;;;5005092;28;20407;-86
2022/06/22 10:00:04;;;;;;;12.75;6.10;;;9.40;99.90;;;;;;4993392;28;20388;-84
2022/06/22 10:02:54;;;;;;;16.43;5.30;;;9.40;99.90;;;;;;5005518;28;20899;-82
2022/06/22 10:05:53;;;;;;;25.38;6.55;;;9.30;99.90;;;;;;5004798;28;20395;-84
2022/06/22 10:08:45;;;;;;;20.60;6.93;;;9.30;99.90;;;;;;5005028;28;20417;-86
2022/06/22 10:11:26;;;;;;;17.95;7.38;;;9.20;99.90;;;;;;5002234;28;20453;-86
2022/06/22 10:13:56;;;;;;;26.10;7.15;;;9.20;99.90;;;;;;5004144;28;20383;-87
2022/06/22 10:16:41;;;;;;;26.90;8.27;;;9.00;99.90;;;;;;4997937;28;20414;-87
2022/06/22 10:19:08;;;;;;;27.42;8.73;;;9.00;99.90;;;;;;5003702;28;21325;-85
2022/06/22 10:22:03;;;;;;;27.60;7.57;;;8.90;99.90;;;;;;4995488;28;20403;-85
2022/06/22 10:24:40;;;;;;;18.30;7.43;;;8.90;99.90;;;;;;5016884;28;20448;-86
2022/06/22 10:27:42;;;;;;;16.63;7.03;;;8.80;99.90;;;;;;5065930;28;20378;-86
2022/06/22 10:30:21;;;;;;;22.17;7.40;;;8.70;99.90;;;;;;5055532;28;20438;-86
2022/06/22 10:33:24;;;;;;;20.20;7.07;;;8.70;99.90;;;;;;5066208;28;20370;-85
2022/06/22 10:36:09;;;;;;;19.90;7.78;;;8.70;99.90;;;;;;5065864;28;20877;-84
2022/06/22 10:39:01;;;;;;;25.08;8.02;;;8.60;99.90;;;;;;5059569;28;20389;-85
2022/06/22 10:45:10;;;;;;;31.17;13.53;;;8.50;99.90;;;;;;5066414;28;20382;-84
2022/06/22 10:48:05;;;;;;;26.77;10.10;;;8.40;99.90;;;;;;5064460;28;20894;-85
2022/06/22 10:51:00;;;;;;;29.27;9.20;;;8.40;99.90;;;;;;4976856;28;20409;-84
2022/06/22 10:54:22;;;;;;;45.13;23.52;;;8.40;99.90;;;;;;5004295;28;20498;-86
2022/06/22 10:56:59;;;;;;;39.63;23.57;;;8.40;99.90;;;;;;5003243;28;20398;-84
2022/06/22 10:59:47;;;;;;;45.25;27.00;;;8.30;99.90;;;;;;5004492;28;20883;-85
2022/06/22 11:02:20;;;;;;;40.13;23.85;;;8.20;99.90;;;;;;5001649;28;20414;-84
2022/06/22 11:05:25;;;;;;;46.83;30.38;;;8.10;99.90;;;;;;5003281;28;20553;-86
2022/06/22 11:08:33;;;;;;;38.22;18.73;;;8.00;99.90;;;;;;4965083;28;20741;-85
2022/06/22 11:11:25;;;;;;;49.20;34.80;;;8.00;99.90;;;;;;4907130;29;20492;-84
2022/06/22 11:14:30;;;;;;;49.00;28.98;;;7.90;99.90;;;;;;4923853;29;20409;-86
2022/06/22 11:17:12;;;;;;;34.15;20.50;;;7.90;99.90;;;;;;4920075;29;20403;-86
2022/06/22 11:20:08;;;;;;;25.38;11.57;;;7.90;99.90;;;;;;4922182;29;20442;-83
2022/06/22 11:22:42;;;;;;;20.08;10.02;;;7.90;99.90;;;;;;4920655;29;20473;-83
2022/06/22 11:25:09;;;;;;;23.10;10.38;;;7.80;99.90;;;;;;4919083;29;20413;-83
2022/06/22 11:30:59;;;;;;;11.98;4.40;;;7.70;99.90;;;;;;4961133;28;20408;-85
2022/06/22 11:33:27;;;;;;;11.85;4.25;;;8.00;99.90;;;;;;4973886;28;20389;-87
2022/06/22 11:36:03;;;;;;;10.05;4.80;;;8.20;99.90;;;;;;4982933;28;20797;-85
2022/06/22 11:38:48;;;;;;;11.27;5.53;;;8.30;99.90;;;;;;4970162;28;20445;-85
2022/06/22 11:41:45;;;;;;;29.23;23.85;;;8.40;99.90;;;;;;4981737;28;20392;-85
2022/06/22 11:45:49;;;;;;;17.63;11.15;;;8.40;99.90;;;;;;4970176;28;20418;-84
2022/06/22 11:48:02;;;;;;;12.10;4.80;;;8.40;99.90;;;;;;5023563;28;20948;-84
2022/06/22 11:50:35;;;;;;;11.75;4.20;;;8.30;99.90;;;;;;5046677;28;20378;-83
2022/06/22 11:53:17;;;;;;;7.18;3.55;;;8.30;99.90;;;;;;5040710;28;20433;-85
2022/06/22 11:55:54;;;;;;;8.60;3.70;;;8.30;99.90;;;;;;5059662;28;20378;-86
2022/06/22 11:58:53;;;;;;;8.00;3.22;;;8.40;99.90;;;;;;5053126;28;20417;-85
2022/06/22 12:01:56;;;;;;;6.07;3.60;;;8.50;99.90;;;;;;5043378;28;21243;-84
2022/06/22 12:04:50;;;;;;;12.63;10.60;;;8.60;99.90;;;;;;5064632;28;20384;-85
2022/06/22 12:07:49;;;;;;;16.52;4.25;;;8.80;99.90;;;;;;5074146;28;20390;-87
2022/06/22 12:10:34;;;;;;;9.55;5.60;;;8.60;99.90;;;;;;5084213;28;20418;-84
2022/06/22 12:13:24;;;;;;;7.88;5.03;;;8.40;99.90;;;;;;5082710;28;20372;-86
2022/06/22 12:16:19;;;;;;;10.98;5.00;;;8.30;99.90;;;;;;5064903;28;20375;-84
2022/06/22 12:19:11;;;;;;;8.77;4.90;;;8.20;99.90;;;;;;5057703;28;20387;-84
2022/06/22 12:21:53;;;;;;;10.73;4.50;;;8.00;99.90;;;;;;5064866;28;20362;-86
2022/06/22 12:24:48;;;;;;;7.43;4.40;;;7.80;99.90;;;;;;5063836;28;20385;-85
2022/06/22 12:27:26;;;;;;;6.13;4.50;;;7.70;99.90;;;;;;5065276;28;20899;-86
2022/06/22 12:30:05;;;;;;;6.00;4.37;;;7.60;99.90;;;;;;5032084;28;20455;-84
2022/06/22 12:32:49;;;;;;;6.55;4.30;;;7.50;99.90;;;;;;5067179;28;20428;-83
2022/06/22 12:35:38;;;;;;;6.82;4.80;;;7.40;99.90;;;;;;5060442;28;20406;-85
2022/06/22 12:38:25;;;;;;;6.55;4.90;;;7.40;99.90;;;;;;5078547;28;20428;-84
2022/06/22 12:40:52;;;;;;;7.25;4.45;;;7.40;99.90;;;;;;5035160;28;20854;-85
2022/06/22 12:43:49;;;;;;;8.30;4.40;;;7.40;99.90;;;;;;5085077;28;20403;-85
2022/06/22 12:46:40;;;;;;;6.25;3.97;;;7.30;99.90;;;;;;5061220;28;20438;-86
2022/06/22 12:49:19;;;;;;;5.53;3.60;;;7.30;99.90;;;;;;5076272;28;20392;-85
2022/06/22 12:52:12;;;;;;;7.90;3.97;;;7.30;99.90;;;;;;5061192;28;20388;-85
2022/06/22 12:54:55;;;;;;;5.70;3.70;;;7.30;99.90;;;;;;5065638;28;20384;-85
2022/06/22 12:57:34;;;;;;;4.93;3.40;;;7.20;99.90;;;;;;5043382;28;20390;-84
2022/06/22 13:00:08;;;;;;;4.75;3.30;;;7.20;99.90;;;;;;5064239;28;20389;-84
2022/06/22 13:02:36;;;;;;;4.47;3.00;;;7.20;99.90;;;;;;5075076;28;20857;-87
2022/06/22 13:05:10;;;;;;;4.28;3.20;;;7.10;99.90;;;;;;5085138;28;20392;-84
2022/06/22 13:08:08;;;;;;;4.28;3.33;;;7.10;99.90;;;;;;5070327;28;20376;-86
2022/06/22 13:10:43;;;;;;;5.00;3.10;;;7.10;99.90;;;;;;4993487;28;20952;-84
2022/06/22 13:13:27;;;;;;;4.23;3.10;;;7.00;99.90;;;;;;5001687;28;20827;-86
2022/06/22 13:16:29;;;;;;;6.47;3.20;;;7.00;99.90;;;;;;5012331;28;20419;-85
2022/06/22 13:19:16;;;;;;;6.63;3.37;;;7.00;99.90;;;;;;5007861;28;20478;-86
2022/06/22 13:21:55;;;;;;;6.10;3.00;;;7.10;99.90;;;;;;4995160;28;20446;-84
2022/06/22 13:24:30;;;;;;;4.47;3.00;;;7.00;99.90;;;;;;4997287;28;20407;-84
2022/06/22 13:27:03;;;;;;;6.63;2.95;;;7.00;99.90;;;;;;5013761;28;20389;-84
2022/06/22 13:29:59;;;;;;;4.68;2.80;;;6.90;99.90;;;;;;4992397;28;20461;-84
2022/06/22 13:32:29;;;;;;;5.35;3.00;;;6.90;99.90;;;;;;4941768;28;20390;-84
2022/06/22 13:35:18;;;;;;;6.65;3.30;;;6.90;99.90;;;;;;4933906;29;20408;-84
2022/06/22 13:38:26;;;;;;;5.47;3.20;;;6.80;99.90;;;;;;4962968;28;20393;-87
2022/06/22 13:41:18;;;;;;;10.85;4.53;;;6.70;99.90;;;;;;4946282;28;20523;-85
2022/06/22 13:44:14;;;;;;;11.63;5.03;;;6.70;99.90;;;;;;4943909;28;20442;-85
2022/06/22 13:46:47;;;;;;;11.00;4.73;;;6.70;99.90;;;;;;4912479;29;20397;-84
2022/06/22 13:49:33;;;;;;;6.35;4.28;;;6.70;99.90;;;;;;4944092;28;20396;-86
2022/06/22 13:52:15;;;;;;;7.67;4.60;;;6.60;99.90;;;;;;4946474;28;20400;-85
2022/06/22 13:55:02;;;;;;;8.07;4.77;;;6.60;99.90;;;;;;4942823;28;20487;-83
2022/06/22 13:57:35;;;;;;;10.38;5.50;;;6.50;99.90;;;;;;4946038;28;20459;-85
2022/06/22 14:00:13;;;;;;;7.17;5.00;;;6.50;99.90;;;;;;4946557;28;20581;-85
2022/06/22 14:02:59;;;;;;;8.48;4.80;;;6.50;99.90;;;;;;4945959;28;20408;-83
2022/06/22 14:05:30;;;;;;;9.52;5.05;;;6.50;99.90;;;;;;4946231;28;20411;-85
2022/06/22 14:08:12;;;;;;;7.53;4.97;;;6.40;99.90;;;;;;4946920;28;20373;-84
2022/06/22 14:11:11;;;;;;;10.77;5.70;;;6.40;99.90;;;;;;4985137;28;20873;-87
2022/06/22 14:13:50;;;;;;;30.35;19.75;;;6.40;99.90;;;;;;4907950;29;20400;-86
2022/06/22 14:16:45;;;;;;;24.95;17.17;;;6.40;99.90;;;;;;4892086;29;20859;-84
2022/06/22 14:19:21;;;;;;;18.77;13.55;;;6.40;99.90;;;;;;4879968;29;20418;-83
2022/06/22 14:21:56;;;;;;;13.70;8.05;;;6.40;99.90;;;;;;4908370;29;20439;-84